sensor_id;sensor_type;location;lat;lon;timestamp;pressure;altitude;pressure_sealevel;temperature;humidity
48386;BME280;34644;47.964;7.982;2023-06-10T00:00:20;96178.19;;;23.02;64.68
48386;BME280;34644;47.964;7.982;2023-06-10T00:07:21;96179.78;;;23.03;64.84
48386;BME280;34644;47.964;7.982;2023-06-10T00:14:21;96183.13;;;23.00;64.74
48386;BME280;34644;47.964;7.982;2023-06-10T00:21:21;96190.41;;;23.00;64.89
48386;BME280;34644;47.964;7.982;2023-06-10T00:28:22;96180.75;;;22.99;64.97
48386;BME280;34644;47.964;7.982;2023-06-10T00:35:22;96182.66;;;22.98;64.89
48386;BME280;34644;47.964;7.982;2023-06-10T00:42:23;96191.81;;;22.97;64.81
48386;BME280;34644;47.964;7.982;2023-06-10T00:49:24;96186.44;;;22.97;65.01
48386;BME280;34644;47.964;7.982;2023-06-10T00:56:25;96184.88;;;22.96;64.85
48386;BME280;34644;47.964;7.982;2023-06-10T01:03:25;96188.69;;;22.95;64.94
48386;BME280;34644;47.964;7.982;2023-06-10T01:10:29;96193.28;;;22.94;64.83
48386;BME280;34644;47.964;7.982;2023-06-10T01:17:32;96189.31;;;22.92;65.01
48386;BME280;34644;47.964;7.982;2023-06-10T01:24:32;96200.84;;;22.92;65.17
48386;BME280;34644;47.964;7.982;2023-06-10T01:31:48;96203.09;;;22.90;65.13
48386;BME280;34644;47.964;7.982;2023-06-10T01:38:50;96206.09;;;22.89;64.75
48386;BME280;34644;47.964;7.982;2023-06-10T01:45:50;96207.19;;;22.88;65.08
48386;BME280;34644;47.964;7.982;2023-06-10T01:52:51;96214.47;;;22.87;65.08
48386;BME280;34644;47.964;7.982;2023-06-10T01:59:51;96225.22;;;22.87;64.89
48386;BME280;34644;47.964;7.982;2023-06-10T02:06:51;96218.25;;;22.86;64.92
48386;BME280;34644;47.964;7.982;2023-06-10T02:13:53;96222.06;;;22.85;64.84
48386;BME280;34644;47.964;7.982;2023-06-10T02:20:54;96225.09;;;22.84;65.07
48386;BME280;34644;47.964;7.982;2023-06-10T02:27:54;96224.59;;;22.82;65.01
48386;BME280;34644;47.964;7.982;2023-06-10T02:34:54;96218.13;;;22.83;64.99
48386;BME280;34644;47.964;7.982;2023-06-10T02:41:57;96219.53;;;22.80;65.05
48386;BME280;34644;47.964;7.982;2023-06-10T02:48:58;96217.66;;;22.81;65.26
48386;BME280;34644;47.964;7.982;2023-06-10T02:55:59;96216.41;;;22.78;64.99
48386;BME280;34644;47.964;7.982;2023-06-10T03:03:00;96222.56;;;22.79;65.17
48386;BME280;34644;47.964;7.982;2023-06-10T03:10:06;96224.00;;;22.76;65.00
48386;BME280;34644;47.964;7.982;2023-06-10T03:17:09;96233.94;;;22.75;65.16
48386;BME280;34644;47.964;7.982;2023-06-10T03:24:10;96243.13;;;22.74;65.09
48386;BME280;34644;47.964;7.982;2023-06-10T03:31:12;96239.31;;;22.75;65.11
48386;BME280;34644;47.964;7.982;2023-06-10T03:38:12;96240.75;;;22.73;65.09
48386;BME280;34644;47.964;7.982;2023-06-10T03:45:13;96246.13;;;22.73;65.01
48386;BME280;34644;47.964;7.982;2023-06-10T03:52:14;96253.41;;;22.72;64.98
48386;BME280;34644;47.964;7.982;2023-06-10T03:59:14;96256.09;;;22.72;65.04
48386;BME280;34644;47.964;7.982;2023-06-10T04:06:15;96252.91;;;22.70;65.21
48386;BME280;34644;47.964;7.982;2023-06-10T04:13:15;96250.22;;;22.70;65.05
48386;BME280;34644;47.964;7.982;2023-06-10T04:20:24;96254.50;;;22.71;65.18
48386;BME280;34644;47.964;7.982;2023-06-10T04:27:25;96263.66;;;22.70;64.85
48386;BME280;34644;47.964;7.982;2023-06-10T04:34:26;96258.28;;;22.70;64.91
48386;BME280;34644;47.964;7.982;2023-06-10T04:41:27;96268.25;;;22.70;65.28
48386;BME280;34644;47.964;7.982;2023-06-10T04:48:28;96271.25;;;22.68;65.04
48386;BME280;34644;47.964;7.982;2023-06-10T04:55:29;96271.25;;;22.68;65.00
48386;BME280;34644;47.964;7.982;2023-06-10T05:02:29;96270.47;;;22.68;65.08
48386;BME280;34644;47.964;7.982;2023-06-10T05:09:29;96281.69;;;22.70;64.94
48386;BME280;34644;47.964;7.982;2023-06-10T05:16:30;96287.06;;;22.70;64.98
48386;BME280;34644;47.964;7.982;2023-06-10T05:23:30;96289.75;;;22.70;65.01
48386;BME280;34644;47.964;7.982;2023-06-10T05:30:30;96295.91;;;22.70;64.85
48386;BME280;34644;47.964;7.982;2023-06-10T05:37:31;96294.03;;;22.71;64.75
48386;BME280;34644;47.964;7.982;2023-06-10T05:51:32;96289.44;;;22.71;64.97
48386;BME280;34644;47.964;7.982;2023-06-10T05:58:32;96294.47;;;22.73;64.70
48386;BME280;34644;47.964;7.982;2023-06-10T06:05:32;96291.00;;;22.72;64.73
48386;BME280;34644;47.964;7.982;2023-06-10T06:12:34;96289.44;;;22.71;64.87
48386;BME280;34644;47.964;7.982;2023-06-10T06:19:35;96288.66;;;22.71;64.74
48386;BME280;34644;47.964;7.982;2023-06-10T06:26:35;96291.00;;;22.72;64.36
48386;BME280;34644;47.964;7.982;2023-06-10T06:33:35;96285.31;;;22.74;64.58
48386;BME280;34644;47.964;7.982;2023-06-10T06:40:36;96279.13;;;22.73;64.76
48386;BME280;34644;47.964;7.982;2023-06-10T06:47:36;96292.25;;;22.75;64.36
48386;BME280;34644;47.964;7.982;2023-06-10T06:54:36;96286.88;;;22.75;64.44
48386;BME280;34644;47.964;7.982;2023-06-10T07:01:37;96298.41;;;22.75;64.42
48386;BME280;34644;47.964;7.982;2023-06-10T07:08:37;96290.03;;;22.77;64.52
48386;BME280;34644;47.964;7.982;2023-06-10T07:15:38;96293.03;;;22.75;64.38
48386;BME280;34644;47.964;7.982;2023-06-10T07:22:39;96281.97;;;22.77;64.42
48386;BME280;34644;47.964;7.982;2023-06-10T07:29:39;96278.50;;;22.76;64.28
48386;BME280;34644;47.964;7.982;2023-06-10T07:36:40;96279.78;;;22.79;64.46
48386;BME280;34644;47.964;7.982;2023-06-10T07:43:40;96283.22;;;22.80;64.35
48386;BME280;34644;47.964;7.982;2023-06-10T07:50:41;96274.06;;;22.81;64.36
48386;BME280;34644;47.964;7.982;2023-06-10T07:57:41;96271.06;;;22.82;64.19
48386;BME280;34644;47.964;7.982;2023-06-10T08:04:41;96280.38;;;22.85;64.30
48386;BME280;34644;47.964;7.982;2023-06-10T08:11:41;96278.94;;;22.87;64.00
48386;BME280;34644;47.964;7.982;2023-06-10T08:18:42;96284.47;;;22.91;64.36
48386;BME280;34644;47.964;7.982;2023-06-10T08:25:42;96281.47;;;22.92;64.16
48386;BME280;34644;47.964;7.982;2023-06-10T08:32:42;96277.66;;;22.93;64.27
48386;BME280;34644;47.964;7.982;2023-06-10T08:39:43;96282.72;;;22.95;64.22
48386;BME280;34644;47.964;7.982;2023-06-10T08:46:43;96280.19;;;22.99;64.14
48386;BME280;34644;47.964;7.982;2023-06-10T08:53:48;96276.06;;;23.01;63.97
48386;BME280;34644;47.964;7.982;2023-06-10T09:00:49;96283.50;;;23.04;63.88
48386;BME280;34644;47.964;7.982;2023-06-10T09:07:51;96280.97;;;23.08;64.16
48386;BME280;34644;47.964;7.982;2023-06-10T09:14:52;96275.28;;;23.09;63.92
48386;BME280;34644;47.964;7.982;2023-06-10T09:21:52;96274.63;;;23.12;63.87
48386;BME280;34644;47.964;7.982;2023-06-10T09:28:52;96283.97;;;23.15;63.85
48386;BME280;34644;47.964;7.982;2023-06-10T09:35:57;96277.78;;;23.15;64.05
48386;BME280;34644;47.964;7.982;2023-06-10T09:43:01;96270.66;;;23.19;64.08
48386;BME280;34644;47.964;7.982;2023-06-10T09:50:01;96268.41;;;23.21;63.90
48386;BME280;34644;47.964;7.982;2023-06-10T09:57:06;96259.72;;;23.24;63.90
48386;BME280;34644;47.964;7.982;2023-06-10T10:04:06;96269.81;;;23.27;63.86
48386;BME280;34644;47.964;7.982;2023-06-10T10:11:07;96262.69;;;23.31;63.64
48386;BME280;34644;47.964;7.982;2023-06-10T10:18:09;96266.16;;;23.32;63.57
48386;BME280;34644;47.964;7.982;2023-06-10T10:25:11;96262.03;;;23.34;63.67
48386;BME280;34644;47.964;7.982;2023-06-10T10:32:12;96263.16;;;23.33;63.80
48386;BME280;34644;47.964;7.982;2023-06-10T10:39:13;96263.16;;;23.33;63.84
48386;BME280;34644;47.964;7.982;2023-06-10T10:46:16;96253.66;;;23.36;63.87
48386;BME280;34644;47.964;7.982;2023-06-10T10:53:19;96256.47;;;23.39;63.75
48386;BME280;34644;47.964;7.982;2023-06-10T11:00:53;96257.91;;;23.37;63.67
48386;BME280;34644;47.964;7.982;2023-06-10T11:07:53;96250.28;;;23.39;63.61
48386;BME280;34644;47.964;7.982;2023-06-10T11:14:55;96252.16;;;23.47;63.58
48386;BME280;34644;47.964;7.982;2023-06-10T11:22:03;96249.94;;;23.49;62.94
48386;BME280;34644;47.964;7.982;2023-06-10T11:29:04;96249.16;;;23.48;63.59
48386;BME280;34644;47.964;7.982;2023-06-10T11:36:08;96242.00;;;23.53;63.52
48386;BME280;34644;47.964;7.982;2023-06-10T11:43:08;96237.22;;;23.58;62.65
48386;BME280;34644;47.964;7.982;2023-06-10T11:50:08;96236.16;;;23.51;62.99
48386;BME280;34644;47.964;7.982;2023-06-10T11:57:09;96231.09;;;23.49;63.25
48386;BME280;34644;47.964;7.982;2023-06-10T12:04:13;96238.06;;;23.50;63.20
48386;BME280;34644;47.964;7.982;2023-06-10T12:11:15;96237.25;;;23.49;63.28
48386;BME280;34644;47.964;7.982;2023-06-10T12:18:19;96234.56;;;23.49;63.47
48386;BME280;34644;47.964;7.982;2023-06-10T12:25:27;96226.19;;;23.51;63.36
48386;BME280;34644;47.964;7.982;2023-06-10T12:32:40;96228.53;;;23.53;63.42
48386;BME280;34644;47.964;7.982;2023-06-10T12:39:41;96220.75;;;23.60;63.25
48386;BME280;34644;47.964;7.982;2023-06-10T12:46:42;96222.13;;;23.66;63.17
48386;BME280;34644;47.964;7.982;2023-06-10T12:53:42;96215.81;;;23.62;63.24
48386;BME280;34644;47.964;7.982;2023-06-10T13:00:43;96209.00;;;23.64;63.21
48386;BME280;34644;47.964;7.982;2023-06-10T13:07:44;96210.72;;;23.69;63.21
48386;BME280;34644;47.964;7.982;2023-06-10T13:14:44;96211.94;;;23.72;62.99
48386;BME280;34644;47.964;7.982;2023-06-10T13:21:45;96198.06;;;23.70;63.03
48386;BME280;34644;47.964;7.982;2023-06-10T13:28:45;96190.91;;;23.74;63.21
48386;BME280;34644;47.964;7.982;2023-06-10T13:35:45;96187.91;;;23.75;63.25
48386;BME280;34644;47.964;7.982;2023-06-10T13:42:46;96192.13;;;23.76;63.40
48386;BME280;34644;47.964;7.982;2023-06-10T13:49:50;96169.50;;;23.77;63.03
48386;BME280;34644;47.964;7.982;2023-06-10T13:56:50;96166.63;;;23.82;63.33
48386;BME280;34644;47.964;7.982;2023-06-10T14:03:51;96175.78;;;23.81;63.39
48386;BME280;34644;47.964;7.982;2023-06-10T14:10:52;96161.44;;;23.77;63.46
48386;BME280;34644;47.964;7.982;2023-06-10T14:17:52;96159.53;;;23.78;63.25
48386;BME280;34644;47.964;7.982;2023-06-10T14:24:53;96156.97;;;23.81;63.27
48386;BME280;34644;47.964;7.982;2023-06-10T14:31:53;96152.53;;;23.86;63.29
48386;BME280;34644;47.964;7.982;2023-06-10T14:38:53;96141.44;;;23.87;63.03
48386;BME280;34644;47.964;7.982;2023-06-10T14:45:53;96141.88;;;23.89;63.44
48386;BME280;34644;47.964;7.982;2023-06-10T14:52:56;96134.63;;;23.90;63.19
48386;BME280;34644;47.964;7.982;2023-06-10T14:59:56;96122.72;;;23.91;63.38
48386;BME280;34644;47.964;7.982;2023-06-10T15:06:56;96119.91;;;23.87;63.21
48386;BME280;34644;47.964;7.982;2023-06-10T15:13:56;96121.59;;;23.92;63.17
48386;BME280;34644;47.964;7.982;2023-06-10T15:20:57;96125.56;;;23.94;63.08
48386;BME280;34644;47.964;7.982;2023-06-10T15:27:57;96117.47;;;23.94;63.35
48386;BME280;34644;47.964;7.982;2023-06-10T15:34:58;96121.94;;;23.90;63.42
48386;BME280;34644;47.964;7.982;2023-06-10T15:41:58;96121.50;;;23.88;63.47
48386;BME280;34644;47.964;7.982;2023-06-10T15:48:58;96115.78;;;23.90;63.15
48386;BME280;34644;47.964;7.982;2023-06-10T15:55:58;96113.09;;;23.90;63.44
48386;BME280;34644;47.964;7.982;2023-06-10T16:02:59;96109.25;;;23.91;63.08
48386;BME280;34644;47.964;7.982;2023-06-10T16:10:00;96115.78;;;23.90;63.13
48386;BME280;34644;47.964;7.982;2023-06-10T16:17:00;96109.25;;;23.91;63.20
48386;BME280;34644;47.964;7.982;2023-06-10T16:24:00;96113.53;;;23.92;63.32
48386;BME280;34644;47.964;7.982;2023-06-10T16:31:01;96097.84;;;23.94;63.15
48386;BME280;34644;47.964;7.982;2023-06-10T16:38:02;96115.22;;;23.96;62.90
48386;BME280;34644;47.964;7.982;2023-06-10T16:45:04;96115.56;;;23.95;63.18
48386;BME280;34644;47.964;7.982;2023-06-10T16:52:06;96127.44;;;23.94;63.10
48386;BME280;34644;47.964;7.982;2023-06-10T16:59:06;96132.38;;;23.92;63.27
48386;BME280;34644;47.964;7.982;2023-06-10T17:06:07;96126.22;;;23.91;63.32
48386;BME280;34644;47.964;7.982;2023-06-10T17:13:08;96132.38;;;23.92;63.34
48386;BME280;34644;47.964;7.982;2023-06-10T17:20:08;96140.78;;;23.90;63.41
48386;BME280;34644;47.964;7.982;2023-06-10T17:27:08;96147.75;;;23.91;63.28
48386;BME280;34644;47.964;7.982;2023-06-10T17:34:09;96156.16;;;23.90;63.29
48386;BME280;34644;47.964;7.982;2023-06-10T17:41:09;96161.53;;;23.90;63.35
48386;BME280;34644;47.964;7.982;2023-06-10T17:48:10;96165.00;;;23.90;63.38
48386;BME280;34644;47.964;7.982;2023-06-10T17:55:10;96166.91;;;23.90;63.55
48386;BME280;34644;47.964;7.982;2023-06-10T18:02:10;96177.59;;;23.77;62.81
48386;BME280;34644;47.964;7.982;2023-06-10T18:09:11;96189.84;;;23.66;61.76
48386;BME280;34644;47.964;7.982;2023-06-10T18:16:11;96190.50;;;23.63;61.63
48386;BME280;34644;47.964;7.982;2023-06-10T18:23:11;96197.97;;;23.57;62.08
48386;BME280;34644;47.964;7.982;2023-06-10T18:30:12;96216.56;;;23.71;62.52
48386;BME280;34644;47.964;7.982;2023-06-10T18:37:12;96214.78;;;23.75;62.32
48386;BME280;34644;47.964;7.982;2023-06-10T18:44:13;96211.06;;;23.67;60.58
48386;BME280;34644;47.964;7.982;2023-06-10T18:51:13;96218.72;;;23.57;57.37
48386;BME280;34644;47.964;7.982;2023-06-10T18:58:13;96228.09;;;23.51;54.99
48386;BME280;34644;47.964;7.982;2023-06-10T19:05:14;96241.41;;;23.47;53.44
48386;BME280;34644;47.964;7.982;2023-06-10T19:12:14;96249.41;;;23.56;56.53
48386;BME280;34644;47.964;7.982;2023-06-10T19:19:14;96245.41;;;23.62;57.12
48386;BME280;34644;47.964;7.982;2023-06-10T19:26:15;96251.56;;;23.62;57.83
48386;BME280;34644;47.964;7.982;2023-06-10T19:33:15;96255.06;;;23.63;58.64
48386;BME280;34644;47.964;7.982;2023-06-10T19:40:15;96265.84;;;23.63;59.31
48386;BME280;34644;47.964;7.982;2023-06-10T19:47:16;96280.06;;;23.63;59.62
48386;BME280;34644;47.964;7.982;2023-06-10T19:54:16;96292.56;;;23.59;59.63
48386;BME280;34644;47.964;7.982;2023-06-10T20:01:17;96292.75;;;23.54;58.90
48386;BME280;34644;47.964;7.982;2023-06-10T20:08:17;96299.63;;;23.43;58.37
48386;BME280;34644;47.964;7.982;2023-06-10T20:15:17;96316.09;;;23.41;57.78
48386;BME280;34644;47.964;7.982;2023-06-10T20:22:19;96314.38;;;23.37;57.74
48386;BME280;34644;47.964;7.982;2023-06-10T20:29:19;96313.22;;;23.46;58.71
48386;BME280;34644;47.964;7.982;2023-06-10T20:36:20;96321.75;;;23.48;58.74
48386;BME280;34644;47.964;7.982;2023-06-10T20:43:22;96332.53;;;23.40;59.30
48386;BME280;34644;47.964;7.982;2023-06-10T20:50:22;96330.47;;;23.45;60.87
48386;BME280;34644;47.964;7.982;2023-06-10T20:57:22;96343.44;;;23.43;59.82
48386;BME280;34644;47.964;7.982;2023-06-10T21:04:24;96340.28;;;23.41;60.24
48386;BME280;34644;47.964;7.982;2023-06-10T21:11:26;96344.25;;;23.35;59.78
48386;BME280;34644;47.964;7.982;2023-06-10T21:18:26;96348.41;;;23.33;60.53
48386;BME280;34644;47.964;7.982;2023-06-10T21:25:30;96339.22;;;23.34;60.70
48386;BME280;34644;47.964;7.982;2023-06-10T21:32:30;96346.50;;;23.33;59.88
48386;BME280;34644;47.964;7.982;2023-06-10T21:39:31;96339.09;;;23.21;59.78
48386;BME280;34644;47.964;7.982;2023-06-10T21:46:31;96345.47;;;23.17;59.72
48386;BME280;34644;47.964;7.982;2023-06-10T21:53:32;96348.31;;;22.94;58.97
48386;BME280;34644;47.964;7.982;2023-06-10T22:00:33;96348.47;;;23.15;59.04
48386;BME280;34644;47.964;7.982;2023-06-10T22:07:33;96349.09;;;23.12;58.95
48386;BME280;34644;47.964;7.982;2023-06-10T22:14:34;96347.50;;;23.02;58.91
48386;BME280;34644;47.964;7.982;2023-06-10T22:21:34;96356.88;;;22.79;59.19
48386;BME280;34644;47.964;7.982;2023-06-10T22:28:36;96367.00;;;22.64;58.37
48386;BME280;34644;47.964;7.982;2023-06-10T22:35:36;96347.84;;;22.83;59.06
48386;BME280;34644;47.964;7.982;2023-06-10T22:42:37;96357.66;;;22.88;58.93
48386;BME280;34644;47.964;7.982;2023-06-10T22:49:37;96343.44;;;22.87;58.40
48386;BME280;34644;47.964;7.982;2023-06-10T22:56:37;96342.16;;;22.93;59.09
48386;BME280;34644;47.964;7.982;2023-06-10T23:03:38;96341.16;;;23.07;59.04
48386;BME280;34644;47.964;7.982;2023-06-10T23:10:38;96347.34;;;23.07;59.11
48386;BME280;34644;47.964;7.982;2023-06-10T23:17:38;96346.75;;;23.10;59.26
48386;BME280;34644;47.964;7.982;2023-06-10T23:24:39;96358.09;;;23.07;60.10
48386;BME280;34644;47.964;7.982;2023-06-10T23:31:40;96351.13;;;23.06;59.81
48386;BME280;34644;47.964;7.982;2023-06-10T23:38:41;96355.25;;;23.04;60.00
48386;BME280;34644;47.964;7.982;2023-06-10T23:45:41;96358.09;;;23.07;59.45
48386;BME280;34644;47.964;7.982;2023-06-10T23:52:41;96364.28;;;23.08;59.34
48386;BME280;34644;47.964;7.982;2023-06-10T23:59:42;96368.06;;;22.98;59.45
